createdAt,value
2023-01-17T00:00:07.240Z,17.98
2023-01-17T00:02:36.650Z,18.25
2023-01-17T00:05:26.074Z,19.13
2023-01-17T00:08:11.580Z,19.65
2023-01-17T00:10:43.511Z,20.33
2023-01-17T00:13:13.042Z,19.55
2023-01-17T00:15:42.631Z,18.95
2023-01-17T00:18:09.545Z,19.42
2023-01-17T00:20:54.814Z,17.55
2023-01-17T00:24:00.500Z,17.42
2023-01-17T00:26:31.259Z,19.50
2023-01-17T00:29:03.938Z,18.65
2023-01-17T00:31:30.650Z,19.67
2023-01-17T00:33:59.968Z,18.85
2023-01-17T00:38:55.127Z,17.90
2023-01-17T00:41:21.897Z,19.23
2023-01-17T00:44:09.578Z,19.05
2023-01-17T00:46:57.044Z,20.92
2023-01-17T00:49:42.602Z,18.85
2023-01-17T00:52:30.088Z,17.27
2023-01-17T00:55:15.530Z,18.17
2023-01-17T00:58:00.912Z,18.35
2023-01-17T01:00:46.179Z,18.50
2023-01-17T01:03:32.356Z,18.20
2023-01-17T01:06:22.629Z,17.77
2023-01-17T01:09:08.026Z,16.92
2023-01-17T01:11:53.286Z,17.35
2023-01-17T01:14:41.316Z,18.50
2023-01-17T01:17:26.615Z,19.02
2023-01-17T01:20:14.198Z,16.95
2023-01-17T01:23:01.908Z,17.60
2023-01-17T01:28:33.422Z,17.63
2023-01-17T01:31:24.964Z,16.77
2023-01-17T01:33:54.850Z,16.35
2023-01-17T01:36:21.653Z,18.20
2023-01-17T01:39:07.386Z,17.00
2023-01-17T01:41:34.385Z,17.27
2023-01-17T01:44:03.349Z,16.23
2023-01-17T01:46:34.205Z,16.00
2023-01-17T01:49:09.333Z,16.27
2023-01-17T01:51:41.571Z,17.50
2023-01-17T01:54:17.893Z,17.23
2023-01-17T01:56:45.793Z,16.77
2023-01-17T01:59:18.619Z,17.05
2023-01-17T02:01:49.617Z,15.65
2023-01-17T02:04:17.244Z,13.85
2023-01-17T02:06:51.841Z,15.23
2023-01-17T02:09:19.242Z,15.73
2023-01-17T02:11:47.423Z,15.73
2023-01-17T02:14:21.972Z,16.65
2023-01-17T02:17:00.840Z,15.05
2023-01-17T02:19:42.549Z,15.77
2023-01-17T02:25:21.876Z,14.98
2023-01-17T02:28:09.957Z,16.13
2023-01-17T02:33:13.918Z,17.45
2023-01-17T02:36:04.336Z,20.05
2023-01-17T02:38:40.897Z,18.65
2023-01-17T02:41:14.753Z,17.95
2023-01-17T02:43:41.597Z,21.33
2023-01-17T02:46:09.769Z,19.85
2023-01-17T02:48:39.573Z,18.33
2023-01-17T02:51:12.396Z,18.13
2023-01-17T02:53:43.155Z,18.55
2023-01-17T02:56:28.183Z,17.23
2023-01-17T02:59:14.468Z,16.55
2023-01-17T03:01:56.799Z,18.88
2023-01-17T03:04:42.882Z,15.80
2023-01-17T03:07:17.857Z,17.52
2023-01-17T03:09:53.553Z,16.08
2023-01-17T03:12:23.154Z,15.25
2023-01-17T03:14:52.084Z,15.77
2023-01-17T03:17:19.095Z,17.13
2023-01-17T03:19:48.544Z,15.98
2023-01-17T03:22:20.143Z,15.15
2023-01-17T03:24:46.971Z,16.52
2023-01-17T03:27:13.779Z,15.93
2023-01-17T03:29:45.407Z,14.98
2023-01-17T03:32:14.072Z,13.77
2023-01-17T03:34:40.764Z,13.95
2023-01-17T03:37:09.564Z,14.30
2023-01-17T03:39:36.217Z,12.20
2023-01-17T03:42:05.081Z,13.50
2023-01-17T03:44:31.986Z,12.18
2023-01-17T03:46:58.595Z,12.38
2023-01-17T03:49:25.634Z,13.30
2023-01-17T03:51:52.865Z,12.65
2023-01-17T03:54:19.600Z,12.88
2023-01-17T03:56:46.190Z,11.75
2023-01-17T03:59:13.322Z,11.32
2023-01-17T04:01:43.067Z,10.52
2023-01-17T04:04:10.060Z,12.32
2023-01-17T04:06:36.645Z,11.80
2023-01-17T04:09:08.140Z,11.57
2023-01-17T04:11:34.934Z,11.32
2023-01-17T04:14:01.554Z,9.95
2023-01-17T04:16:34.756Z,10.30
2023-01-17T04:19:04.096Z,9.82
2023-01-17T04:21:33.370Z,10.60
2023-01-17T04:26:32.007Z,9.70
2023-01-17T04:29:00.931Z,9.40
2023-01-17T04:31:33.477Z,9.90
2023-01-17T04:34:02.340Z,8.40
2023-01-17T04:36:28.996Z,10.18
2023-01-17T04:38:57.853Z,10.23
2023-01-17T04:41:24.519Z,7.90
2023-01-17T04:43:51.165Z,9.05
2023-01-17T04:46:17.851Z,8.73
2023-01-17T04:48:44.524Z,9.40
2023-01-17T04:51:13.647Z,8.13
2023-01-17T04:53:42.394Z,8.38
2023-01-17T04:56:09.142Z,8.63
2023-01-17T04:58:40.644Z,7.85
2023-01-17T05:01:10.939Z,7.50
2023-01-17T05:03:39.751Z,6.80
2023-01-17T05:06:06.349Z,6.32
2023-01-17T05:08:33.099Z,6.07
2023-01-17T05:11:02.352Z,5.55
2023-01-17T05:13:31.297Z,5.60
2023-01-17T05:16:00.476Z,5.43
2023-01-17T05:18:32.199Z,5.88
2023-01-17T05:21:05.085Z,5.75
2023-01-17T05:23:33.122Z,5.15
2023-01-17T05:26:02.202Z,4.38
2023-01-17T05:28:34.129Z,4.78
2023-01-17T05:31:00.974Z,4.43
2023-01-17T05:33:30.159Z,4.20
2023-01-17T05:38:24.066Z,4.90
2023-01-17T05:40:55.901Z,4.30
2023-01-17T05:43:23.031Z,5.50
2023-01-17T05:45:52.123Z,5.03
2023-01-17T05:48:21.058Z,4.88
2023-01-17T05:50:50.032Z,4.85
2023-01-17T05:53:17.086Z,4.82
2023-01-17T06:01:02.969Z,3.60
2023-01-17T06:03:32.017Z,3.15
2023-01-17T06:05:58.548Z,3.33
2023-01-17T06:08:25.126Z,3.13
2023-01-17T06:10:54.002Z,3.42
2023-01-17T06:13:23.412Z,3.33
2023-01-17T06:18:19.225Z,3.38
2023-01-17T06:20:55.056Z,3.65
2023-01-17T06:23:23.033Z,3.50
2023-01-17T06:25:50.188Z,4.28
2023-01-17T06:28:19.423Z,3.30
2023-01-17T06:30:48.221Z,3.25
2023-01-17T06:33:15.645Z,3.92
2023-01-17T06:35:55.427Z,3.53
2023-01-17T06:38:22.177Z,3.80
2023-01-17T06:40:48.872Z,3.40
2023-01-17T06:43:17.744Z,3.25
2023-01-17T06:45:44.288Z,5.75
2023-01-17T06:48:15.794Z,3.60
2023-01-17T06:50:49.744Z,3.83
2023-01-17T06:53:24.610Z,3.95
2023-01-17T06:55:53.444Z,3.85
2023-01-17T06:58:20.184Z,6.05
2023-01-17T07:00:48.864Z,4.90
2023-01-17T07:03:23.403Z,4.78
2023-01-17T07:05:50.096Z,5.15
2023-01-17T07:08:17.671Z,5.07
2023-01-17T07:10:45.612Z,5.78
2023-01-17T07:13:13.401Z,4.57
2023-01-17T07:15:40.260Z,4.07
2023-01-17T07:18:09.477Z,4.65
2023-01-17T07:20:36.089Z,4.63
2023-01-17T07:23:03.293Z,4.95
2023-01-17T07:25:32.874Z,4.57
2023-01-17T07:27:59.472Z,4.40
2023-01-17T07:30:27.024Z,3.88
2023-01-17T07:32:56.713Z,3.97
2023-01-17T07:35:26.796Z,3.55
2023-01-17T07:37:56.407Z,3.90
2023-01-17T07:40:24.401Z,3.10
2023-01-17T07:42:51.017Z,4.05
2023-01-17T07:45:21.932Z,4.28
2023-01-17T07:47:50.830Z,3.20
2023-01-17T07:50:19.603Z,2.60
2023-01-17T07:52:51.921Z,2.17
2023-01-17T07:55:19.265Z,1.40
2023-01-17T07:57:49.229Z,1.40
2023-01-17T08:00:16.327Z,1.40
2023-01-17T08:02:42.872Z,1.20
2023-01-17T08:05:14.263Z,1.35
2023-01-17T08:07:43.317Z,1.25
2023-01-17T08:10:13.194Z,1.15
2023-01-17T08:12:41.940Z,0.90
2023-01-17T08:15:09.373Z,1.00
2023-01-17T08:17:41.148Z,1.02
2023-01-17T08:20:07.870Z,0.82
2023-01-17T08:22:34.599Z,0.80
2023-01-17T08:25:01.137Z,0.90
2023-01-17T08:27:31.075Z,1.15
2023-01-17T08:29:57.746Z,1.63
2023-01-17T08:32:26.413Z,0.95
2023-01-17T08:34:57.151Z,0.90
2023-01-17T08:37:27.066Z,0.70
2023-01-17T08:39:55.914Z,0.80
2023-01-17T08:42:27.283Z,0.80
2023-01-17T08:44:53.893Z,1.00
2023-01-17T08:47:20.496Z,0.93
2023-01-17T08:49:49.467Z,0.88
2023-01-17T08:52:18.395Z,0.90
2023-01-17T08:54:49.686Z,1.58
2023-01-17T08:57:18.865Z,0.95
2023-01-17T08:59:45.442Z,0.90
2023-01-17T09:02:15.104Z,0.98
2023-01-17T09:04:48.512Z,0.82
2023-01-17T09:07:18.981Z,0.70
2023-01-17T09:09:45.587Z,0.63
2023-01-17T09:12:12.455Z,0.60
2023-01-17T09:14:39.061Z,0.80
2023-01-17T09:17:07.049Z,0.85
2023-01-17T09:19:35.410Z,0.88
2023-01-17T09:22:04.439Z,0.90
2023-01-17T09:24:32.846Z,0.90
2023-01-17T09:27:00.160Z,0.80
2023-01-17T09:29:26.737Z,0.80
2023-01-17T09:31:57.840Z,0.93
2023-01-17T09:34:26.608Z,1.00
2023-01-17T09:36:56.961Z,0.80
2023-01-17T09:39:26.011Z,1.13
2023-01-17T09:42:17.197Z,1.00
2023-01-17T09:44:51.548Z,1.10
2023-01-17T09:47:45.395Z,1.00
2023-01-17T09:50:15.449Z,1.00
2023-01-17T09:52:46.978Z,1.10
2023-01-17T09:55:16.121Z,1.15
2023-01-17T09:57:55.042Z,0.75
2023-01-17T10:00:39.763Z,1.08
2023-01-17T10:03:52.532Z,1.17
2023-01-17T10:06:23.849Z,1.17
2023-01-17T10:09:15.433Z,1.40
2023-01-17T10:11:42.297Z,1.08
2023-01-17T10:14:18.400Z,0.88
2023-01-17T10:16:45.119Z,0.80
2023-01-17T10:19:42.334Z,1.00
2023-01-17T10:22:18.038Z,0.90
2023-01-17T10:25:13.228Z,0.90
2023-01-17T10:27:51.511Z,1.00
2023-01-17T10:30:27.886Z,0.80
2023-01-17T10:32:59.728Z,0.90
2023-01-17T10:35:33.593Z,0.70
2023-01-17T10:38:05.943Z,0.80
2023-01-17T10:40:50.248Z,0.60
2023-01-17T10:43:45.462Z,0.77
2023-01-17T10:46:21.977Z,0.80
2023-01-17T10:48:52.033Z,0.80
2023-01-17T10:51:34.115Z,0.73
2023-01-17T10:54:27.837Z,0.90
2023-01-17T10:57:00.222Z,0.80
2023-01-17T10:59:38.139Z,0.85
2023-01-17T11:02:19.028Z,0.80
2023-01-17T11:04:50.174Z,0.70
2023-01-17T11:07:19.513Z,0.65
2023-01-17T11:09:51.809Z,0.80
2023-01-17T11:12:37.134Z,0.70
2023-01-17T11:15:09.581Z,0.60
2023-01-17T11:17:49.948Z,0.68
2023-01-17T11:20:20.192Z,0.77
2023-01-17T11:23:21.243Z,0.80
2023-01-17T11:26:00.326Z,0.65
2023-01-17T11:28:31.969Z,0.50
2023-01-17T11:31:09.255Z,0.90
2023-01-17T11:33:56.612Z,0.70
2023-01-17T11:36:30.075Z,0.70
2023-01-17T11:39:05.728Z,0.80
2023-01-17T11:41:40.864Z,0.65
2023-01-17T11:44:28.268Z,0.82
2023-01-17T11:47:07.611Z,0.70
2023-01-17T11:49:36.926Z,0.88
2023-01-17T11:52:18.721Z,1.65
2023-01-17T11:54:49.706Z,2.25
2023-01-17T11:57:34.945Z,2.15
2023-01-17T12:00:23.986Z,1.10
2023-01-17T12:02:55.839Z,1.00
2023-01-17T12:05:27.988Z,1.00
2023-01-17T12:08:26.121Z,1.00
2023-01-17T12:11:18.857Z,0.40
2023-01-17T12:14:06.647Z,0.80
2023-01-17T12:16:51.559Z,0.82
2023-01-17T12:19:32.353Z,0.80
2023-01-17T12:22:20.382Z,0.55
2023-01-17T12:25:15.325Z,0.60
2023-01-17T12:28:15.853Z,2.33
2023-01-17T12:31:20.777Z,1.88
2023-01-17T12:33:53.756Z,2.83
2023-01-17T12:37:08.423Z,2.25
2023-01-17T12:39:46.586Z,1.40
2023-01-17T12:42:24.129Z,1.27
2023-01-17T12:44:57.986Z,1.35
2023-01-17T12:47:25.704Z,1.30
2023-01-17T12:50:03.215Z,4.18
2023-01-17T12:52:38.944Z,1.75
2023-01-17T12:55:12.082Z,5.28
2023-01-17T12:57:47.502Z,11.20
2023-01-17T13:00:23.097Z,1.83
2023-01-17T13:02:55.247Z,1.40
2023-01-17T13:05:44.777Z,1.73
2023-01-17T13:08:49.652Z,2.67
2023-01-17T13:11:23.236Z,1.83
2023-01-17T13:13:57.585Z,2.67
2023-01-17T13:16:51.336Z,2.15
2023-01-17T13:21:57.083Z,1.40
2023-01-17T13:24:31.240Z,1.88
2023-01-17T13:27:09.970Z,2.00
2023-01-17T13:29:42.540Z,13.35
2023-01-17T13:32:27.631Z,4.50
2023-01-17T13:35:13.073Z,2.42
2023-01-17T13:37:57.192Z,4.03
2023-01-17T13:41:06.292Z,2.90
2023-01-17T13:44:01.948Z,5.72
2023-01-17T13:47:04.137Z,10.43
2023-01-17T13:49:34.245Z,2.35
2023-01-17T13:52:10.692Z,6.63
2023-01-17T13:55:05.297Z,3.00
2023-01-17T13:57:46.218Z,3.25
2023-01-17T14:00:16.415Z,1.92
2023-01-17T14:02:43.620Z,3.20
2023-01-17T14:05:21.189Z,3.90
2023-01-17T14:08:03.109Z,3.88
2023-01-17T14:41:43.218Z,1.60
2023-01-17T15:21:55.666Z,1.95
2023-01-17T15:24:34.485Z,2.13
2023-01-17T15:27:01.894Z,2.35
2023-01-17T15:29:33.625Z,2.30
2023-01-17T15:32:05.451Z,2.00
2023-01-17T15:34:36.378Z,2.42
2023-01-17T15:37:05.743Z,2.08
2023-01-17T15:40:01.761Z,2.00
2023-01-17T15:42:31.834Z,2.10
2023-01-17T15:45:31.333Z,2.40
2023-01-17T15:48:45.091Z,2.33
2023-01-17T15:51:37.385Z,3.00
2023-01-17T15:54:52.805Z,2.35
2023-01-17T15:57:47.974Z,2.50
2023-01-17T16:00:45.551Z,2.30
2023-01-17T16:03:31.676Z,2.22
2023-01-17T16:06:47.485Z,2.10
2023-01-17T16:09:25.715Z,2.47
2023-01-17T16:11:54.732Z,2.30
2023-01-17T16:14:32.327Z,4.78
2023-01-17T16:17:21.860Z,2.50
2023-01-17T16:19:48.411Z,2.78
2023-01-17T16:22:14.999Z,2.42
2023-01-17T16:24:41.559Z,3.17
2023-01-17T16:27:11.570Z,2.03
2023-01-17T16:29:38.123Z,2.15
2023-01-17T16:32:08.931Z,2.00
2023-01-17T16:34:40.312Z,2.20
2023-01-17T16:37:09.354Z,2.72
2023-01-17T16:39:50.127Z,2.83
2023-01-17T16:42:16.711Z,2.83
2023-01-17T16:44:48.243Z,2.60
2023-01-17T16:47:41.806Z,2.35
2023-01-17T16:50:23.683Z,2.95
2023-01-17T16:52:59.670Z,2.60
2023-01-17T16:55:26.724Z,2.30
2023-01-17T16:57:59.781Z,2.85
2023-01-17T17:00:36.759Z,2.63
2023-01-17T17:03:03.529Z,2.75
2023-01-17T17:05:33.445Z,3.00
2023-01-17T17:11:30.725Z,3.60
2023-01-17T17:14:06.242Z,3.00
2023-01-17T17:16:39.015Z,3.40
2023-01-17T17:19:15.295Z,3.50
2023-01-17T17:21:55.263Z,3.55
2023-01-17T17:24:27.941Z,3.38
2023-01-17T17:29:37.981Z,4.30
2023-01-17T17:32:13.947Z,3.63
2023-01-17T17:34:42.751Z,3.40
2023-01-17T17:37:10.391Z,3.65
2023-01-17T17:39:36.988Z,3.40
2023-01-17T17:42:08.125Z,3.25
2023-01-17T17:44:35.598Z,3.17
2023-01-17T17:47:02.478Z,3.00
2023-01-17T17:49:29.009Z,2.95
2023-01-17T17:52:03.795Z,2.50
2023-01-17T17:54:30.409Z,3.20
2023-01-17T17:56:56.987Z,2.90
2023-01-17T17:59:24.024Z,3.10
2023-01-17T18:01:51.503Z,2.60
2023-01-17T18:04:21.687Z,2.85
2023-01-17T18:06:51.290Z,3.10
2023-01-17T18:09:18.018Z,2.85
2023-01-17T18:11:44.709Z,2.78
2023-01-17T18:14:17.807Z,2.47
2023-01-17T18:16:45.346Z,3.38
2023-01-17T18:19:20.986Z,2.90
2023-01-17T18:21:48.797Z,3.00
2023-01-17T18:24:17.370Z,3.08
2023-01-17T18:26:50.150Z,2.75
2023-01-17T18:29:18.933Z,3.33
2023-01-17T18:31:47.127Z,3.63
2023-01-17T18:34:39.428Z,4.40
2023-01-17T18:37:06.056Z,4.38
2023-01-17T18:39:32.701Z,3.83
2023-01-17T18:42:01.719Z,3.63
2023-01-17T18:44:30.779Z,4.07
2023-01-17T18:47:04.849Z,4.05
2023-01-17T18:49:35.059Z,1.95
2023-01-17T18:52:09.447Z,2.58
2023-01-17T19:01:53.832Z,4.05
2023-01-17T19:04:35.992Z,3.63
2023-01-17T19:07:05.007Z,3.42
2023-01-17T19:09:34.150Z,3.95
2023-01-17T19:12:03.040Z,3.40
2023-01-17T19:14:32.501Z,3.50
2023-01-17T19:17:01.726Z,5.13
2023-01-17T19:19:28.358Z,3.88
2023-01-17T19:21:57.560Z,4.88
2023-01-17T19:24:27.751Z,5.20
2023-01-17T19:26:56.604Z,6.68
2023-01-17T19:29:23.574Z,5.95
2023-01-17T19:31:55.601Z,5.72
2023-01-17T19:34:25.363Z,3.58
2023-01-17T19:36:53.195Z,4.20
2023-01-17T19:39:20.575Z,4.38
2023-01-17T19:41:47.107Z,3.60
2023-01-17T19:44:16.301Z,3.47
2023-01-17T19:46:46.256Z,3.20
2023-01-17T19:49:23.916Z,3.08
2023-01-17T19:51:51.295Z,3.50
2023-01-17T19:54:23.711Z,3.30
2023-01-17T19:56:52.629Z,2.55
2023-01-17T19:59:20.106Z,2.90
2023-01-17T20:01:48.060Z,2.55
2023-01-17T20:04:18.022Z,2.30
2023-01-17T20:06:46.177Z,2.65
2023-01-17T20:09:13.604Z,2.05
2023-01-17T20:11:43.492Z,1.83
2023-01-17T20:14:14.276Z,1.77
2023-01-17T20:16:45.081Z,1.70
2023-01-17T20:19:13.793Z,1.63
2023-01-17T20:21:40.338Z,1.60
2023-01-17T20:24:09.673Z,1.60
2023-01-17T20:29:10.077Z,2.03
2023-01-17T20:31:43.459Z,1.80
2023-01-17T20:34:13.045Z,1.63
2023-01-17T20:36:46.752Z,2.25
2023-01-17T20:39:17.057Z,2.50
2023-01-17T20:41:46.407Z,2.00
2023-01-17T20:46:42.118Z,1.45
2023-01-17T20:49:16.040Z,1.30
2023-01-17T20:51:46.167Z,1.60
2023-01-17T20:54:15.282Z,1.90
2023-01-17T20:56:47.207Z,2.35
2023-01-17T20:59:17.338Z,1.42
2023-01-17T21:01:48.938Z,1.45
2023-01-17T21:04:16.507Z,1.45
2023-01-17T21:06:46.601Z,1.88
2023-01-17T21:09:17.290Z,1.67
2023-01-17T21:11:48.385Z,1.98
2023-01-17T21:14:17.635Z,1.48
2023-01-17T21:16:44.659Z,1.30
2023-01-17T21:19:16.326Z,1.55
2023-01-17T21:21:45.210Z,1.95
2023-01-17T21:24:19.163Z,2.10
2023-01-17T21:26:46.862Z,1.75
2023-01-17T21:29:16.030Z,2.17
2023-01-17T21:37:56.794Z,2.10
2023-01-17T21:40:23.588Z,1.73
2023-01-17T21:42:52.906Z,1.80
2023-01-17T21:47:45.893Z,1.30
2023-01-17T21:50:32.051Z,1.73
2023-01-17T21:53:02.858Z,1.85
2023-01-17T21:55:50.150Z,1.85
2023-01-17T21:58:37.626Z,2.00
2023-01-17T22:01:18.041Z,2.03
2023-01-17T22:03:54.497Z,1.95
2023-01-17T22:06:24.958Z,1.70
2023-01-17T22:08:51.910Z,1.65
2023-01-17T22:11:20.759Z,1.80
2023-01-17T22:13:52.341Z,1.52
2023-01-17T22:16:21.375Z,1.95
2023-01-17T22:18:50.240Z,1.20
2023-01-17T22:21:22.531Z,1.83
2023-01-17T22:23:53.619Z,2.03
2023-01-17T22:26:27.484Z,2.03
2023-01-17T22:28:59.144Z,1.83
2023-01-17T22:31:30.356Z,1.90
2023-01-17T22:34:02.875Z,1.67
2023-01-17T22:36:37.815Z,1.63
2023-01-17T22:39:04.700Z,2.10
2023-01-17T22:41:37.390Z,1.60
2023-01-17T22:44:07.699Z,1.75
2023-01-17T22:46:39.304Z,1.13
2023-01-17T22:49:13.433Z,1.40
2023-01-17T22:51:42.911Z,1.33
2023-01-17T22:56:43.418Z,1.60
2023-01-17T22:59:13.597Z,1.55
2023-01-17T23:01:49.105Z,1.70
2023-01-17T23:06:43.952Z,2.00
2023-01-17T23:09:13.417Z,1.40
2023-01-17T23:11:43.320Z,1.83
2023-01-17T23:14:10.356Z,1.83
2023-01-17T23:17:00.744Z,1.65
2023-01-17T23:19:30.411Z,1.83
2023-01-17T23:22:19.356Z,1.80
2023-01-17T23:24:53.577Z,1.55
2023-01-17T23:27:43.213Z,1.60
2023-01-17T23:30:11.504Z,1.52
2023-01-17T23:32:45.140Z,1.40
2023-01-17T23:35:11.986Z,1.73
2023-01-17T23:38:05.951Z,1.60
2023-01-17T23:43:20.807Z,1.83
2023-01-17T23:48:14.085Z,1.70
2023-01-17T23:50:47.522Z,1.50
2023-01-17T23:53:22.581Z,1.50
2023-01-17T23:55:54.256Z,1.40
2023-01-17T23:58:30.618Z,1.40
